Time;durP1;ratioP1;P1;durP2;ratioP2;P2;SDS_P1;SDS_P2;PMS_P1;PMS_P2;Temp;Humidity;BMP_temperature;BMP_pressure;BME280_temperature;BME280_humidity;BME280_pressure;Samples;Min_cycle;Max_cycle;Signal;HPM_P1;HPM_P2
2022/05/06 00:00:30;;;;;;;9.80;6.60;;;;;;;14.53;70.61;99678.12;4470757;32;34452;-72
2022/05/06 00:02:58;;;;;;;8.35;6.07;;;;;;;14.57;69.97;99675.38;4465225;32;33294;-72
2022/05/06 00:05:26;;;;;;;8.40;6.10;;;;;;;14.23;69.78;99676.09;4469604;32;33717;-72
2022/05/06 00:07:53;;;;;;;8.75;5.45;;;;;;;14.26;70.96;99679.56;4467484;32;35923;-72
2022/05/06 00:10:21;;;;;;;8.57;6.03;;;;;;;14.89;68.45;99668.59;4470615;32;34465;-72
2022/05/06 00:12:49;;;;;;;7.55;5.00;;;;;;;15.02;68.21;99666.56;4469220;32;33302;-72
2022/05/06 00:15:17;;;;;;;8.95;5.37;;;;;;;15.07;67.86;99663.81;4470785;32;33926;-72
2022/05/06 00:17:45;;;;;;;8.32;5.30;;;;;;;14.89;68.70;99665.97;4468493;32;34941;-76
2022/05/06 00:20:13;;;;;;;8.32;5.53;;;;;;;14.63;69.04;99668.31;4453722;32;33990;-72
2022/05/06 00:22:43;;;;;;;10.20;6.15;;;;;;;14.81;69.92;99662.69;4460180;32;34335;-72
2022/05/06 00:25:12;;;;;;;8.00;5.80;;;;;;;14.92;69.22;99670.31;4455030;32;34046;-72
2022/05/06 00:27:42;;;;;;;8.07;5.80;;;;;;;14.78;69.66;99678.47;4454416;32;34925;-72
2022/05/06 00:30:10;;;;;;;10.15;6.40;;;;;;;14.66;69.53;99673.50;4453796;32;34990;-72
2022/05/06 00:32:40;;;;;;;9.30;6.35;;;;;;;15.13;69.30;99675.03;4453591;32;33348;-72
2022/05/06 00:35:08;;;;;;;8.13;6.22;;;;;;;15.34;67.54;99676.28;4454575;32;33914;-71
2022/05/06 00:37:37;;;;;;;9.48;6.22;;;;;;;14.70;71.41;99672.53;4454528;32;35055;-72
2022/05/06 00:40:06;;;;;;;10.52;5.30;;;;;;;14.96;69.91;99666.69;4454881;32;34353;-72
2022/05/06 00:42:33;;;;;;;10.30;6.22;;;;;;;15.12;70.24;99675.06;4454541;32;34181;-72
2022/05/06 00:45:02;;;;;;;11.40;6.72;;;;;;;14.93;68.28;99672.87;4454892;32;33775;-72
2022/05/06 00:47:30;;;;;;;7.45;5.50;;;;;;;14.90;71.20;99672.09;4453479;32;35575;-72
2022/05/06 00:50:00;;;;;;;10.00;6.78;;;;;;;15.15;68.91;99675.00;4469389;32;34303;-72
2022/05/06 00:52:29;;;;;;;11.50;6.37;;;;;;;15.23;68.19;99670.44;4449116;32;34231;-74
2022/05/06 00:54:57;;;;;;;8.18;5.93;;;;;;;15.20;68.57;99664.41;4453646;32;33938;-72
2022/05/06 00:57:25;;;;;;;7.78;5.68;;;;;;;15.46;68.66;99669.88;4453293;32;34710;-74
2022/05/06 01:02:39;;;;;;;;;;;;;;;15.27;69.05;99674.69;4468983;32;33535;-72
2022/05/06 01:05:09;;;;;;;9.48;6.28;;;;;;;15.33;69.89;99669.28;4453927;32;35033;-71
2022/05/06 01:07:37;;;;;;;10.32;6.05;;;;;;;15.09;69.70;99678.63;4453860;32;35103;-72
2022/05/06 01:10:06;;;;;;;8.50;6.03;;;;;;;15.40;68.18;99679.66;4455606;32;34466;-73
2022/05/06 01:12:34;;;;;;;9.77;5.85;;;;;;;15.36;68.52;99687.59;4454589;32;34251;-75
2022/05/06 01:15:19;;;;;;;7.68;5.82;;;;;;;15.54;68.65;99686.25;4454920;32;34819;-72
2022/05/06 01:17:50;;;;;;;9.15;6.12;;;;;;;15.01;69.30;99685.81;4454415;32;35182;-72
2022/05/06 01:20:20;;;;;;;9.48;6.87;;;;;;;15.54;67.70;99674.91;4454666;32;33557;-72
2022/05/06 01:22:53;;;;;;;7.82;5.82;;;;;;;15.58;66.33;99676.53;4452207;32;33456;-73
2022/05/06 01:25:20;;;;;;;9.55;6.53;;;;;;;15.39;66.03;99670.91;4456202;32;33895;-72
2022/05/06 01:27:55;;;;;;;8.82;6.60;;;;;;;15.50;64.54;99678.53;4467728;32;35955;-72
2022/05/06 01:30:29;;;;;;;10.07;6.80;;;;;;;16.21;61.15;99674.00;4454345;32;34468;-72
2022/05/06 01:32:59;;;;;;;9.65;6.70;;;;;;;16.30;61.29;99677.22;4440370;32;33815;-72
2022/05/06 01:35:29;;;;;;;10.13;6.45;;;;;;;16.39;60.47;99681.34;4440652;32;33035;-72
2022/05/06 01:38:03;;;;;;;7.28;5.75;;;;;;;16.30;60.58;99676.38;4453860;32;35160;-72
2022/05/06 01:40:43;;;;;;;9.23;6.57;;;;;;;16.09;61.72;99673.47;4453565;32;35092;-72
2022/05/06 01:43:14;;;;;;;9.77;6.70;;;;;;;16.39;62.20;99676.09;4454535;32;33534;-71
2022/05/06 01:45:44;;;;;;;10.27;7.12;;;;;;;16.29;61.27;99672.03;4455934;32;33053;-73
2022/05/06 01:48:16;;;;;;;12.88;6.55;;;;;;;16.10;62.14;99664.66;4465616;32;34257;-72
2022/05/06 01:50:45;;;;;;;10.88;7.18;;;;;;;16.16;62.54;99673.28;4453375;32;34424;-72
2022/05/06 01:53:16;;;;;;;8.98;6.47;;;;;;;16.54;60.12;99671.31;4443151;32;33419;-72
2022/05/06 01:55:45;;;;;;;10.35;6.55;;;;;;;16.22;60.86;99673.13;4468564;32;33238;-73
2022/05/06 01:58:13;;;;;;;8.45;6.37;;;;;;;16.57;60.00;99664.19;4465729;32;35182;-71
2022/05/06 02:00:41;;;;;;;12.35;7.50;;;;;;;16.70;59.34;99672.56;4454328;32;34176;-72
2022/05/06 02:05:16;;;;;;;8.75;6.45;;;;;;;16.55;59.76;99673.03;4453416;32;33440;-72
2022/05/06 02:05:59;;;;;;;10.90;6.75;;;;;;;16.13;60.56;99674.25;4456084;32;33857;-72
2022/05/06 02:08:27;;;;;;;12.27;6.53;;;;;;;16.39;60.42;99670.00;4459741;32;34973;-71
2022/05/06 02:10:55;;;;;;;9.98;6.85;;;;;;;16.67;58.93;99660.34;4466178;32;34402;-71
2022/05/06 02:13:23;;;;;;;9.30;6.15;;;;;;;16.82;58.11;99664.31;4460678;32;34036;-75
2022/05/06 02:15:51;;;;;;;10.60;6.78;;;;;;;16.86;58.39;99663.31;4471590;32;34874;-71
2022/05/06 02:18:19;;;;;;;7.78;5.95;;;;;;;16.79;59.23;99669.66;4467441;32;35130;-72
2022/05/06 02:20:48;;;;;;;9.55;6.62;;;;;;;16.36;60.01;99676.22;4456212;32;34541;-72
2022/05/06 02:23:16;;;;;;;9.20;6.85;;;;;;;16.53;58.73;99672.22;4461441;32;33417;-72
2022/05/06 02:25:45;;;;;;;9.95;6.57;;;;;;;16.71;58.50;99674.28;4454531;32;34108;-74
2022/05/06 02:28:14;;;;;;;8.00;6.00;;;;;;;16.73;58.17;99664.59;4457279;32;35238;-72
2022/05/06 02:33:31;;;;;;;10.85;6.68;;;;;;;17.10;56.49;99658.22;4454987;32;33406;-73
2022/05/06 02:36:01;;;;;;;9.77;6.87;;;;;;;17.15;57.03;99669.41;4455774;32;33214;-72
2022/05/06 02:38:30;;;;;;;8.95;6.22;;;;;;;16.70;58.28;99672.56;4458893;32;35976;-73
2022/05/06 02:40:59;;;;;;;9.13;6.03;;;;;;;16.91;57.48;99678.12;4457648;32;34851;-72
2022/05/06 02:43:27;;;;;;;8.93;5.87;;;;;;;16.75;58.16;99677.69;4469033;32;33496;-72
2022/05/06 02:45:55;;;;;;;10.65;6.20;;;;;;;16.75;58.59;99678.56;4471593;32;34649;-72
2022/05/06 02:48:23;;;;;;;12.55;6.45;;;;;;;16.55;58.49;99673.03;4453530;32;35900;-72
2022/05/06 02:50:51;;;;;;;10.15;6.07;;;;;;;17.06;57.00;99677.62;4455661;32;35306;-72
2022/05/06 02:53:21;;;;;;;10.50;6.30;;;;;;;16.84;57.32;99673.03;4456872;32;34205;-72
2022/05/06 02:55:49;;;;;;;12.15;6.55;;;;;;;16.75;57.41;99673.28;4471241;32;34051;-72
2022/05/06 02:58:17;;;;;;;8.75;6.05;;;;;;;17.04;56.58;99669.75;4466282;32;35914;-72
2022/05/06 03:00:46;;;;;;;10.18;6.32;;;;;;;17.03;56.79;99662.81;4454784;32;34528;-72
2022/05/06 03:03:14;;;;;;;9.52;6.15;;;;;;;16.47;58.11;99660.97;4454528;32;32909;-72
2022/05/06 03:05:45;;;;;;;8.90;5.85;;;;;;;16.80;57.11;99660.88;4465646;32;34348;-72
2022/05/06 03:08:16;;;;;;;8.13;5.60;;;;;;;17.05;56.50;99663.59;4455301;32;35023;-72
2022/05/06 03:10:44;;;;;;;8.63;5.62;;;;;;;16.92;57.08;99656.16;4455837;32;34521;-75
2022/05/06 03:13:13;;;;;;;8.57;5.47;;;;;;;16.77;57.03;99660.94;4454763;32;34112;-72
2022/05/06 03:15:43;;;;;;;8.38;5.75;;;;;;;17.40;55.50;99665.97;4470651;32;34636;-73
2022/05/06 03:18:12;;;;;;;10.10;5.97;;;;;;;16.71;56.74;99674.28;4470141;32;35299;-72
2022/05/06 03:20:43;;;;;;;12.73;6.65;;;;;;;16.93;56.38;99665.78;4467675;32;34537;-75
2022/05/06 03:23:15;;;;;;;8.88;6.07;;;;;;;16.55;58.11;99665.13;4441468;32;33580;-76
2022/05/06 03:25:43;;;;;;;10.15;5.62;;;;;;;16.67;57.58;99670.03;4441690;32;34753;-74
2022/05/06 03:28:11;;;;;;;8.20;6.03;;;;;;;16.83;57.03;99671.28;4454641;32;36052;-75
2022/05/06 03:30:44;;;;;;;8.82;5.15;;;;;;;17.07;55.89;99674.09;4469479;32;34418;-72
2022/05/06 03:33:14;;;;;;;8.63;5.70;;;;;;;17.14;55.51;99672.97;4470057;32;33636;-74
2022/05/06 03:35:42;;;;;;;7.93;5.15;;;;;;;17.16;55.42;99679.03;4441464;32;34043;-72
2022/05/06 03:38:10;;;;;;;7.55;5.57;;;;;;;16.86;56.52;99673.84;4455513;32;35166;-72
2022/05/06 03:40:39;;;;;;;7.43;5.00;;;;;;;17.14;55.58;99670.34;4451007;32;35068;-74
2022/05/06 03:43:07;;;;;;;8.73;5.87;;;;;;;16.93;56.13;99669.25;4440363;32;33315;-75
2022/05/06 03:45:38;;;;;;;7.18;5.20;;;;;;;16.93;56.95;99665.78;4454915;32;34036;-74
2022/05/06 03:48:07;;;;;;;9.32;5.85;;;;;;;16.74;56.92;99670.72;4454604;32;34941;-72
2022/05/06 03:53:23;;;;;;;11.12;5.35;;;;;;;17.25;55.72;99670.84;4453552;32;33381;-73
2022/05/06 03:55:52;;;;;;;7.90;5.72;;;;;;;16.83;56.71;99673.94;4455258;32;34007;-72
2022/05/06 03:58:20;;;;;;;7.93;5.37;;;;;;;16.85;56.44;99673.87;4453947;32;35872;-73
2022/05/06 04:00:49;;;;;;;8.13;5.50;;;;;;;16.92;56.42;99679.81;4470552;32;35092;-73
2022/05/06 04:03:17;;;;;;;11.12;5.68;;;;;;;16.80;57.58;99681.91;4455641;32;34343;-72
2022/05/06 04:05:45;;;;;;;9.15;5.60;;;;;;;16.83;56.68;99687.09;4470312;32;34308;-74
2022/05/06 04:08:13;;;;;;;11.25;5.95;;;;;;;16.85;57.01;99685.28;4470534;32;34996;-75
2022/05/06 04:10:42;;;;;;;8.23;5.78;;;;;;;17.15;55.32;99682.56;4455179;32;34431;-77
2022/05/06 04:13:10;;;;;;;10.63;5.80;;;;;;;17.01;56.49;99684.78;4454948;32;33359;-75
2022/05/06 04:15:39;;;;;;;11.93;6.25;;;;;;;17.42;55.05;99688.72;4442180;32;33917;-74
2022/05/06 04:18:09;;;;;;;9.82;5.90;;;;;;;16.83;57.05;99692.34;4456715;32;35184;-75
2022/05/06 04:23:35;;;;;;;10.18;5.68;;;;;;;17.19;56.31;99694.75;4425328;32;34598;-75
2022/05/06 04:26:05;;;;;;;8.73;6.03;;;;;;;17.12;56.88;99698.47;4455150;32;34180;-75
2022/05/06 04:28:34;;;;;;;7.80;5.40;;;;;;;17.19;56.57;99709.69;4454251;32;35154;-75
2022/05/06 04:31:03;;;;;;;9.10;5.72;;;;;;;17.20;56.56;99704.34;4453668;32;34637;-74
2022/05/06 04:33:32;;;;;;;8.35;5.78;;;;;;;17.67;56.05;99710.75;4453390;32;34396;-75
2022/05/06 04:36:00;;;;;;;8.85;5.85;;;;;;;17.47;55.98;99720.16;4440505;32;34439;-76
2022/05/06 04:38:28;;;;;;;9.73;6.03;;;;;;;17.70;55.96;99715.88;4440618;32;35828;-74
2022/05/06 04:40:59;;;;;;;10.60;6.50;;;;;;;17.62;55.77;99717.00;4454927;32;35094;-76
2022/05/06 04:43:27;;;;;;;7.82;5.47;;;;;;;17.64;56.41;99716.97;4453782;32;33479;-75
2022/05/06 04:45:55;;;;;;;9.35;6.37;;;;;;;17.62;56.40;99714.38;4440833;32;33457;-75
2022/05/06 04:48:25;;;;;;;10.15;6.25;;;;;;;17.74;55.84;99728.91;4454668;32;35275;-75
2022/05/06 04:50:53;;;;;;;10.50;6.25;;;;;;;17.25;58.17;99731.38;4439521;32;33736;-76
2022/05/06 04:53:21;;;;;;;10.02;5.85;;;;;;;18.04;55.70;99735.84;4443666;32;34177;-75
2022/05/06 04:55:49;;;;;;;8.05;5.45;;;;;;;18.26;55.16;99731.50;4453746;32;33834;-75
2022/05/06 04:58:18;;;;;;;14.43;6.57;;;;;;;17.84;56.56;99739.12;4460784;32;35982;-77
2022/05/06 05:00:47;;;;;;;10.18;6.07;;;;;;;18.02;56.15;99745.56;4470458;32;35213;-76
2022/05/06 05:03:16;;;;;;;9.73;6.30;;;;;;;18.07;55.45;99746.25;4470475;32;33552;-75
2022/05/06 05:05:44;;;;;;;9.23;6.07;;;;;;;18.19;55.42;99745.81;4456588;32;33888;-76
2022/05/06 05:08:13;;;;;;;10.25;6.05;;;;;;;18.24;54.96;99740.41;4462386;32;35064;-73
2022/05/06 05:10:41;;;;;;;8.70;6.05;;;;;;;18.28;54.56;99742.87;4455100;32;34464;-76
2022/05/06 05:13:10;;;;;;;11.02;6.37;;;;;;;16.81;58.87;99733.56;4456628;32;33729;-72
2022/05/06 05:15:38;;;;;;;8.88;6.22;;;;;;;17.05;58.75;99739.06;4456478;32;34528;-74
2022/05/06 05:18:07;;;;;;;13.70;6.35;;;;;;;17.73;56.41;99736.84;4454613;32;34910;-77
2022/05/06 05:20:35;;;;;;;14.60;6.90;;;;;;;17.92;56.58;99739.75;4466058;32;34468;-72
2022/05/06 05:23:03;;;;;;;10.40;6.43;;;;;;;17.56;56.84;99734.78;4468488;32;34188;-76
2022/05/06 05:25:31;;;;;;;10.63;7.12;;;;;;;17.36;57.42;99740.69;4455783;32;33812;-74
2022/05/06 05:27:59;;;;;;;9.20;6.47;;;;;;;17.39;58.11;99744.09;4454753;32;35071;-72
2022/05/06 05:30:28;;;;;;;8.00;6.12;;;;;;;17.74;58.05;99749.13;4453950;32;35245;-75
2022/05/06 05:32:57;;;;;;;14.73;6.32;;;;;;;17.71;56.99;99738.69;4453620;32;33921;-72
2022/05/06 05:35:25;;;;;;;11.07;6.18;;;;;;;17.41;57.32;99739.63;4464693;32;34736;-74
2022/05/06 05:37:54;;;;;;;9.30;6.12;;;;;;;17.60;57.64;99737.25;4467703;32;35940;-76
2022/05/06 05:40:22;;;;;;;13.13;6.93;;;;;;;17.87;57.36;99739.91;4453293;32;35298;-76
2022/05/06 05:42:50;;;;;;;8.68;6.60;;;;;;;17.66;58.86;99751.16;4454292;32;33619;-77
2022/05/06 05:48:20;;;;;;;9.82;6.68;;;;;;;17.46;57.58;99750.03;4454030;32;35080;-78
2022/05/06 05:50:48;;;;;;;9.43;6.35;;;;;;;17.80;57.44;99759.44;4454151;32;35062;-77
2022/05/06 05:53:17;;;;;;;10.27;7.57;;;;;;;18.11;55.66;99750.53;4470163;32;33445;-75
2022/05/06 05:55:46;;;;;;;10.45;6.03;;;;;;;17.89;55.93;99753.88;4440835;32;34052;-76
2022/05/06 05:58:14;;;;;;;10.23;7.50;;;;;;;17.89;56.80;99753.88;4452911;32;35150;-73
2022/05/06 06:00:43;;;;;;;10.50;6.53;;;;;;;17.52;57.86;99762.13;4465007;32;34518;-73
2022/05/06 06:03:11;;;;;;;11.55;6.65;;;;;;;17.66;57.54;99759.91;4468391;32;33686;-77
2022/05/06 06:05:39;;;;;;;9.65;5.97;;;;;;;18.00;55.65;99754.41;4457189;32;34824;-75
2022/05/06 06:08:09;;;;;;;9.98;6.25;;;;;;;18.03;57.02;99760.47;4452003;32;34796;-74
2022/05/06 06:10:38;;;;;;;9.23;6.32;;;;;;;18.10;55.74;99767.25;4453550;32;35204;-74
2022/05/06 06:13:07;;;;;;;12.00;6.95;;;;;;;17.84;56.97;99766.31;4454441;32;32765;-77
2022/05/06 06:15:35;;;;;;;10.70;6.75;;;;;;;18.16;55.81;99769.69;4458201;32;34006;-78
2022/05/06 06:18:03;;;;;;;12.15;6.80;;;;;;;18.28;55.18;99766.63;4453124;32;35086;-76
2022/05/06 06:20:31;;;;;;;9.27;6.53;;;;;;;18.64;54.44;99762.69;4441738;32;34398;-75
2022/05/06 06:23:00;;;;;;;9.77;6.95;;;;;;;18.02;57.33;99770.16;4457652;32;33463;-77
2022/05/06 06:25:28;;;;;;;9.05;6.57;;;;;;;18.03;57.02;99768.38;4461896;32;33849;-75
2022/05/06 06:27:56;;;;;;;9.18;6.68;;;;;;;18.14;56.15;99768.84;4457424;32;35082;-78
2022/05/06 06:30:24;;;;;;;10.07;6.60;;;;;;;18.68;54.13;99786.25;4461542;32;35147;-75
2022/05/06 06:32:53;;;;;;;9.07;6.72;;;;;;;18.73;54.74;99779.03;4469202;32;33447;-74
2022/05/06 06:35:22;;;;;;;14.00;7.15;;;;;;;18.46;55.11;99780.03;4458408;32;33799;-78
2022/05/06 06:37:50;;;;;;;9.35;6.43;;;;;;;18.20;54.60;99779.19;4439544;32;35322;-73
2022/05/06 06:40:19;;;;;;;10.35;7.03;;;;;;;18.65;54.50;99773.16;4453004;32;34334;-77
2022/05/06 06:42:47;;;;;;;8.88;6.72;;;;;;;18.33;56.11;99775.19;4447801;32;33636;-78
2022/05/06 06:45:18;;;;;;;9.60;6.95;;;;;;;18.30;55.72;99775.31;4453278;32;34602;-77
2022/05/06 06:47:48;;;;;;;13.85;6.95;;;;;;;18.54;55.25;99772.69;4452513;32;35843;-76
2022/05/06 06:50:16;;;;;;;11.00;6.10;;;;;;;18.45;55.92;99778.31;4453883;32;35152;-76
2022/05/06 06:52:44;;;;;;;10.50;6.70;;;;;;;19.20;52.58;99774.66;4471524;32;33606;-74
2022/05/06 06:55:12;;;;;;;11.27;6.87;;;;;;;19.32;52.69;99776.81;4469840;32;34717;-74
2022/05/06 06:57:40;;;;;;;10.65;6.22;;;;;;;19.17;53.48;99770.38;4446319;32;34972;-76
2022/05/06 07:00:08;;;;;;;9.90;6.80;;;;;;;19.40;53.55;99769.44;4452211;32;34872;-78
2022/05/06 07:02:40;;;;;;;12.95;7.32;;;;;;;19.37;52.64;99768.72;4457440;32;32621;-77
2022/05/06 07:05:08;;;;;;;11.10;6.87;;;;;;;18.68;53.96;99767.78;4456002;32;33984;-77
2022/05/06 07:13:46;;;;;;;11.27;7.12;;;;;;;18.74;54.61;99769.31;4454915;32;34265;-77
2022/05/06 07:16:14;;;;;;;11.07;7.07;;;;;;;19.31;52.93;99764.53;4464391;32;34527;-77
2022/05/06 07:18:43;;;;;;;13.48;7.50;;;;;;;19.36;52.78;99773.13;4456929;32;33442;-77
2022/05/06 07:21:11;;;;;;;14.65;6.72;;;;;;;19.09;54.55;99770.63;4455799;32;35168;-79
2022/05/06 07:23:39;;;;;;;12.48;7.78;;;;;;;19.57;51.63;99770.53;4471049;32;34233;-77
2022/05/06 07:26:07;;;;;;;11.30;8.15;;;;;;;19.07;53.55;99769.84;4444266;32;34050;-74
2022/05/06 07:28:34;;;;;;;11.73;6.93;;;;;;;18.89;54.57;99768.78;4428580;32;33594;-77
2022/05/06 07:31:03;;;;;;;11.20;6.85;;;;;;;19.55;53.46;99767.09;4454979;32;34606;-79
2022/05/06 07:33:30;;;;;;;12.02;7.68;;;;;;;19.61;52.11;99764.22;4440031;32;32514;-78
2022/05/06 07:35:59;;;;;;;13.80;7.85;;;;;;;19.72;51.83;99763.78;4455763;32;33905;-77
2022/05/06 07:38:27;;;;;;;13.90;7.87;;;;;;;19.26;52.63;99771.78;4470802;32;36189;-77
2022/05/06 07:40:55;;;;;;;13.00;7.35;;;;;;;19.69;52.10;99770.03;4455501;32;34535;-73
2022/05/06 07:43:22;;;;;;;14.20;7.62;;;;;;;19.51;52.21;99766.38;4457028;32;33724;-79
2022/05/06 07:45:53;;;;;;;11.98;7.35;;;;;;;19.80;51.56;99778.41;4454592;32;33693;-78
2022/05/06 07:48:21;;;;;;;10.52;7.65;;;;;;;19.42;52.83;99778.16;4456387;32;35176;-77
2022/05/06 07:50:49;;;;;;;10.52;7.45;;;;;;;19.78;52.76;99774.94;4452277;32;33812;-78
2022/05/06 07:53:17;;;;;;;11.75;7.68;;;;;;;19.69;52.97;99778.84;4470883;32;34066;-77
2022/05/06 07:55:49;;;;;;;11.18;7.62;;;;;;;19.48;51.97;99775.28;4455930;32;33837;-78
2022/05/06 07:58:17;;;;;;;10.93;7.35;;;;;;;19.97;51.26;99777.69;4470773;32;34962;-77
2022/05/06 08:00:45;;;;;;;13.77;7.32;;;;;;;20.29;50.64;99780.72;4469187;32;35149;-77
2022/05/06 08:06:04;;;;;;;18.45;7.07;;;;;;;20.20;51.95;99784.62;4454672;32;34950;-74
2022/05/06 08:08:32;;;;;;;10.77;6.95;;;;;;;20.85;49.42;99771.19;4450771;32;34977;-77
2022/05/06 08:11:01;;;;;;;10.70;6.85;;;;;;;20.75;48.77;99776.03;4449855;32;34374;-81
2022/05/06 08:13:29;;;;;;;10.15;6.82;;;;;;;20.64;51.05;99787.13;4456515;32;32800;-73
2022/05/06 08:15:58;;;;;;;13.05;8.25;;;;;;;21.10;49.77;99778.00;4461939;32;33943;-79
2022/05/06 08:18:28;;;;;;;13.80;8.10;;;;;;;21.10;50.09;99785.94;4441496;32;36590;-79
2022/05/06 08:20:57;;;;;;;11.40;7.22;;;;;;;21.43;50.35;99774.69;4462415;32;34318;-78
2022/05/06 08:23:25;;;;;;;15.32;7.22;;;;;;;21.15;48.74;99770.69;4453863;32;34397;-81
2022/05/06 08:25:53;;;;;;;12.98;7.57;;;;;;;21.28;48.38;99771.81;4441907;32;33879;-76
2022/05/06 08:28:22;;;;;;;12.93;7.95;;;;;;;21.74;47.41;99771.38;4454952;32;35830;-76
2022/05/06 08:30:51;;;;;;;11.98;7.95;;;;;;;21.83;48.35;99772.72;4461615;32;34469;-73
2022/05/06 08:33:19;;;;;;;12.93;7.75;;;;;;;21.42;49.11;99775.59;4461476;32;33663;-75
2022/05/06 08:35:47;;;;;;;10.68;7.62;;;;;;;21.68;47.91;99769.91;4455729;32;33780;-78
2022/05/06 08:38:17;;;;;;;12.05;8.32;;;;;;;22.43;47.17;99775.84;4454379;32;35069;-77
2022/05/06 08:40:48;;;;;;;13.60;6.40;;;;;;;22.58;45.51;99774.16;4453737;32;34398;-77
2022/05/06 08:43:16;;;;;;;12.80;6.78;;;;;;;22.07;45.80;99776.78;4461031;32;33145;-73
2022/05/06 08:51:37;;;;;;;10.20;6.62;;;;;;;22.66;44.42;99779.03;4446834;32;34383;-72
2022/05/06 08:54:06;;;;;;;12.13;6.75;;;;;;;22.92;43.83;99774.97;4451042;32;33260;-72
2022/05/06 08:56:34;;;;;;;10.63;6.47;;;;;;;22.72;46.19;99778.72;4443501;32;33848;-73
2022/05/06 08:59:02;;;;;;;10.20;7.15;;;;;;;22.14;46.82;99775.53;4470113;32;35108;-74
2022/05/06 09:01:30;;;;;;;11.02;6.45;;;;;;;22.78;44.84;99780.19;4447015;32;35114;-74
2022/05/06 09:03:58;;;;;;;12.30;6.80;;;;;;;23.10;44.75;99778.44;4427970;32;32724;-74
2022/05/06 09:06:28;;;;;;;10.60;7.10;;;;;;;23.12;44.12;99784.56;4455059;32;33956;-74
2022/05/06 09:08:57;;;;;;;10.00;6.72;;;;;;;23.11;44.00;99782.81;4439794;32;33691;-74
2022/05/06 09:16:39;;;;;;;8.57;5.75;;;;;;;22.93;45.68;99774.06;4453754;32;33421;-75
2022/05/06 09:17:20;;;;;;;11.30;6.72;;;;;;;23.47;44.73;99776.38;4454020;32;34787;-74
2022/05/06 09:19:49;;;;;;;9.25;6.22;;;;;;;23.64;42.12;99783.38;4453151;32;36012;-74
2022/05/06 09:22:16;;;;;;;10.18;6.47;;;;;;;23.45;44.18;99775.59;4467082;32;34458;-74
2022/05/06 09:24:50;;;;;;;14.50;8.13;;;;;;;24.13;40.83;99777.88;4459697;32;34417;-75
2022/05/06 09:27:19;;;;;;;9.90;5.65;;;;;;;23.99;42.77;99778.69;4456619;32;34597;-74
2022/05/06 09:29:50;;;;;;;12.07;6.07;;;;;;;23.63;43.38;99779.00;4416195;32;1165044;-72
2022/05/06 09:32:26;;;;;;;11.52;5.37;;;;;;;24.29;40.44;99783.12;4440171;32;34451;-73
2022/05/06 09:35:12;;;;;;;9.18;5.90;;;;;;;23.69;41.89;99788.44;4439347;32;33733;-73
2022/05/06 09:37:43;;;;;;;7.80;5.60;;;;;;;24.17;40.65;99782.03;4455381;32;34925;-75
2022/05/06 09:40:15;;;;;;;8.23;5.60;;;;;;;24.70;39.91;99770.91;4447233;32;34329;-73
2022/05/06 09:42:46;;;;;;;10.57;5.53;;;;;;;24.86;39.02;99776.97;4441198;32;34436;-73
2022/05/06 09:45:33;;;;;;;10.32;5.55;;;;;;;24.67;39.84;99771.09;4441637;32;33642;-72
2022/05/06 09:48:11;;;;;;;8.18;5.22;;;;;;;24.50;40.09;99767.66;4453681;32;34253;-72
2022/05/06 09:50:51;;;;;;;7.82;5.05;;;;;;;24.42;41.58;99775.22;4465175;32;35988;-73
2022/05/06 09:53:25;;;;;;;;;;;;;;;24.31;39.38;99772.37;4454146;32;34485;-72
2022/05/06 09:55:54;;;;;;;8.07;5.28;;;;;;;24.38;40.25;99774.56;4453766;32;33397;-72
2022/05/06 09:58:27;;;;;;;7.75;5.15;;;;;;;24.72;37.83;99772.50;4448417;32;33921;-72
2022/05/06 10:00:55;;;;;;;6.60;4.00;;;;;;;24.99;37.90;99766.41;4453595;32;35012;-72
2022/05/06 10:03:23;;;;;;;6.22;4.43;;;;;;;24.93;36.21;99774.78;4444734;32;34424;-76
2022/05/06 10:05:51;;;;;;;13.88;4.43;;;;;;;24.44;38.08;99772.47;4451128;32;33468;-73
2022/05/06 10:08:20;;;;;;;11.48;4.53;;;;;;;24.73;36.40;99766.25;4443976;32;34713;-72
2022/05/06 10:10:56;;;;;;;;;;;;;;;24.81;36.64;99770.22;4438888;32;35181;-72
2022/05/06 10:13:27;;;;;;;7.45;4.25;;;;;;;24.84;38.49;99765.56;4444703;32;34631;-73
2022/05/06 10:15:56;;;;;;;7.70;4.20;;;;;;;24.96;36.99;99763.94;4449183;32;33727;-73
2022/05/06 10:18:34;;;;;;;7.95;4.40;;;;;;;25.39;35.81;99766.50;4443434;32;33885;-80
2022/05/06 10:21:06;;;;;;;5.15;3.67;;;;;;;24.91;37.56;99763.38;4458627;32;36155;-82
2022/05/06 10:23:50;;;;;;;5.60;3.37;;;;;;;25.06;36.72;99758.84;4444874;32;35219;-80
2022/05/06 10:26:51;;;;;;;6.90;3.80;;;;;;;25.19;35.89;99753.62;4455335;32;34397;-80
2022/05/06 10:32:54;;;;;;;6.80;4.27;;;;;;;24.91;38.33;99764.22;4455395;32;35912;-74
2022/05/06 10:35:42;;;;;;;6.00;3.90;;;;;;;25.03;36.46;99764.41;4448722;32;35308;-80
2022/05/06 10:38:19;;;;;;;10.82;4.85;;;;;;;25.67;36.91;99748.69;4454683;32;33460;-79
2022/05/06 10:40:57;;;;;;;6.78;3.92;;;;;;;25.38;35.99;99756.81;4458818;32;34018;-73
2022/05/06 10:43:46;;;;;;;6.50;4.30;;;;;;;26.13;34.69;99755.41;4469351;32;35058;-75
2022/05/06 10:46:41;;;;;;;6.70;4.15;;;;;;;26.22;33.87;99755.63;4461073;32;34401;-81
2022/05/06 10:49:33;;;;;;;4.85;3.42;;;;;;;25.94;34.17;99746.00;4469039;32;33545;-77
2022/05/06 10:52:13;;;;;;;5.70;3.67;;;;;;;25.81;33.86;99745.94;4469897;32;33811;-80
2022/05/06 10:54:47;;;;;;;7.68;3.92;;;;;;;25.48;34.72;99743.72;4458034;32;35076;-79
2022/05/06 10:57:16;;;;;;;7.28;4.45;;;;;;;25.57;35.12;99744.91;4466945;32;34584;-74
2022/05/06 10:59:47;;;;;;;6.87;4.28;;;;;;;25.54;35.13;99741.50;4469953;32;33660;-79
2022/05/06 11:02:16;;;;;;;6.03;4.03;;;;;;;25.33;34.93;99743.78;4469853;32;33807;-79
2022/05/06 11:04:54;;;;;;;7.57;4.28;;;;;;;25.02;35.70;99731.56;4471036;32;35875;-78
2022/05/06 11:07:23;;;;;;;7.05;4.80;;;;;;;24.64;36.96;99734.03;4455905;32;34415;-80
2022/05/06 11:09:52;;;;;;;6.40;4.25;;;;;;;25.70;35.38;99743.16;4457240;32;34556;-79
2022/05/06 11:12:51;;;;;;;6.20;4.15;;;;;;;25.44;36.69;99735.06;4443760;32;33939;-74
2022/05/06 11:15:23;;;;;;;6.03;4.03;;;;;;;26.01;34.87;99733.09;4444653;32;36013;-74
2022/05/06 11:17:55;;;;;;;6.05;4.18;;;;;;;25.83;36.33;99733.34;4457218;32;35033;-81
2022/05/06 11:20:32;;;;;;;5.97;3.80;;;;;;;25.95;34.53;99737.03;4471049;32;33396;-80
2022/05/06 11:23:03;;;;;;;5.87;3.80;;;;;;;25.86;36.38;99733.16;4471063;32;34072;-77
2022/05/06 11:25:33;;;;;;;12.15;4.28;;;;;;;26.14;35.20;99730.41;4455961;32;35023;-73
2022/05/06 11:28:20;;;;;;;6.35;4.45;;;;;;;26.01;35.30;99725.09;4455013;32;34322;-74
2022/05/06 11:30:49;;;;;;;7.32;4.00;;;;;;;25.49;37.71;99729.44;4441228;32;32919;-82
2022/05/06 11:33:28;;;;;;;4.65;3.25;;;;;;;25.84;35.86;99724.41;4455723;32;33882;-74
2022/05/06 11:36:08;;;;;;;5.93;3.58;;;;;;;25.60;35.28;99718.91;4456097;32;35037;-79
2022/05/06 11:38:46;;;;;;;5.70;3.80;;;;;;;25.73;35.72;99718.91;4471181;32;35303;-79
2022/05/06 11:41:16;;;;;;;7.10;3.78;;;;;;;25.92;36.88;99716.75;4452156;32;33549;-79
2022/05/06 11:43:45;;;;;;;6.40;4.03;;;;;;;25.93;36.13;99717.59;4455302;32;34627;-78
2022/05/06 11:49:04;;;;;;;5.20;3.62;;;;;;;25.72;34.48;99715.41;4448656;32;34391;-78
2022/05/06 11:51:39;;;;;;;5.40;3.92;;;;;;;26.03;35.31;99708.03;4440973;32;31718;-79
2022/05/06 11:54:07;;;;;;;5.25;3.40;;;;;;;25.56;37.00;99716.56;4455245;32;33927;-78
2022/05/06 11:56:38;;;;;;;7.43;3.42;;;;;;;25.36;35.00;99716.09;4454796;32;36135;-79
2022/05/06 11:59:06;;;;;;;5.30;3.37;;;;;;;25.39;34.07;99720.34;4453940;32;34541;-80
2022/05/06 12:01:35;;;;;;;7.37;3.97;;;;;;;25.60;34.75;99710.06;4465398;32;33737;-80
2022/05/06 12:04:10;;;;;;;4.78;3.00;;;;;;;26.21;35.41;99713.03;4464536;32;34015;-80
2022/05/06 12:06:41;;;;;;;4.65;3.08;;;;;;;26.43;32.51;99715.03;4460473;32;35130;-75
2022/05/06 12:09:16;;;;;;;8.13;3.12;;;;;;;25.60;34.74;99705.56;4457031;32;34432;-83
2022/05/06 12:11:45;;;;;;;5.00;3.03;;;;;;;25.55;32.09;99713.03;4469253;32;33443;-75
2022/05/06 12:14:17;;;;;;;4.72;3.22;;;;;;;25.45;32.04;99702.13;4456693;32;33761;-79
2022/05/06 12:16:56;;;;;;;4.05;3.10;;;;;;;25.00;33.13;99703.31;4451935;32;35119;-74
2022/05/06 12:19:38;;;;;;;4.70;3.10;;;;;;;25.62;32.06;99711.66;4457899;32;35318;-73
2022/05/06 12:22:14;;;;;;;6.82;3.62;;;;;;;25.32;33.88;99695.91;4446547;32;33636;-74
2022/05/06 12:24:45;;;;;;;4.30;3.28;;;;;;;24.90;33.64;99697.72;4454961;32;34298;-78